sensor_id;sensor_type;location;lat;lon;timestamp;temperature;humidity
56729;DHT22;42612;52.232;7.560;2022-10-16T00:00:31;17.30;61.60
56729;DHT22;42612;52.232;7.560;2022-10-16T00:02:56;17.30;61.70
56729;DHT22;42612;52.232;7.560;2022-10-16T00:05:22;17.30;61.60
56729;DHT22;42612;52.232;7.560;2022-10-16T00:07:48;17.30;61.60
56729;DHT22;42612;52.232;7.560;2022-10-16T00:10:13;17.30;61.60
56729;DHT22;42612;52.232;7.560;2022-10-16T00:12:39;17.30;61.70
56729;DHT22;42612;52.232;7.560;2022-10-16T00:15:05;17.30;61.70
56729;DHT22;42612;52.232;7.560;2022-10-16T00:17:31;17.20;61.80
56729;DHT22;42612;52.232;7.560;2022-10-16T00:19:57;17.20;61.80
56729;DHT22;42612;52.232;7.560;2022-10-16T00:22:23;17.20;61.80
56729;DHT22;42612;52.232;7.560;2022-10-16T00:24:48;17.20;61.90
56729;DHT22;42612;52.232;7.560;2022-10-16T00:27:14;17.20;61.90
56729;DHT22;42612;52.232;7.560;2022-10-16T00:29:39;17.10;61.90
56729;DHT22;42612;52.232;7.560;2022-10-16T00:32:05;17.10;61.90
56729;DHT22;42612;52.232;7.560;2022-10-16T00:34:31;17.10;62.00
56729;DHT22;42612;52.232;7.560;2022-10-16T00:36:56;17.10;62.00
56729;DHT22;42612;52.232;7.560;2022-10-16T00:39:22;17.20;62.10
56729;DHT22;42612;52.232;7.560;2022-10-16T00:41:48;17.10;62.10
56729;DHT22;42612;52.232;7.560;2022-10-16T00:47:09;17.10;62.20
56729;DHT22;42612;52.232;7.560;2022-10-16T00:49:36;17.10;62.30
56729;DHT22;42612;52.232;7.560;2022-10-16T00:52:01;17.10;62.40
56729;DHT22;42612;52.232;7.560;2022-10-16T00:54:28;17.10;62.50
56729;DHT22;42612;52.232;7.560;2022-10-16T00:56:56;17.10;62.50
56729;DHT22;42612;52.232;7.560;2022-10-16T00:59:32;17.10;62.80
56729;DHT22;42612;52.232;7.560;2022-10-16T01:02:02;17.00;62.60
56729;DHT22;42612;52.232;7.560;2022-10-16T01:04:30;17.00;62.70
56729;DHT22;42612;52.232;7.560;2022-10-16T01:07:02;16.90;62.70
56729;DHT22;42612;52.232;7.560;2022-10-16T01:15:09;16.90;63.00
56729;DHT22;42612;52.232;7.560;2022-10-16T01:20:10;16.90;63.30
56729;DHT22;42612;52.232;7.560;2022-10-16T01:22:47;16.90;63.30
56729;DHT22;42612;52.232;7.560;2022-10-16T01:25:29;16.90;63.40
56729;DHT22;42612;52.232;7.560;2022-10-16T01:27:58;16.90;63.30
56729;DHT22;42612;52.232;7.560;2022-10-16T01:30:26;16.90;63.50
56729;DHT22;42612;52.232;7.560;2022-10-16T01:32:55;16.90;63.70
56729;DHT22;42612;52.232;7.560;2022-10-16T01:35:36;16.80;63.80
56729;DHT22;42612;52.232;7.560;2022-10-16T01:38:28;16.90;63.60
56729;DHT22;42612;52.232;7.560;2022-10-16T01:40:58;16.90;63.60
56729;DHT22;42612;52.232;7.560;2022-10-16T01:43:33;16.90;63.80
56729;DHT22;42612;52.232;7.560;2022-10-16T01:46:10;16.80;63.70
56729;DHT22;42612;52.232;7.560;2022-10-16T01:48:38;16.80;64.00
56729;DHT22;42612;52.232;7.560;2022-10-16T01:51:05;16.90;63.90
56729;DHT22;42612;52.232;7.560;2022-10-16T01:53:33;16.80;63.80
56729;DHT22;42612;52.232;7.560;2022-10-16T01:55:59;16.90;64.00
56729;DHT22;42612;52.232;7.560;2022-10-16T01:58:26;16.80;64.20
56729;DHT22;42612;52.232;7.560;2022-10-16T02:00:53;16.80;64.00
56729;DHT22;42612;52.232;7.560;2022-10-16T02:03:20;16.80;64.20
56729;DHT22;42612;52.232;7.560;2022-10-16T02:05:53;16.80;64.10
56729;DHT22;42612;52.232;7.560;2022-10-16T02:08:20;16.80;64.20
56729;DHT22;42612;52.232;7.560;2022-10-16T02:10:46;16.80;64.30
56729;DHT22;42612;52.232;7.560;2022-10-16T02:13:13;16.80;64.40
56729;DHT22;42612;52.232;7.560;2022-10-16T02:15:42;16.80;64.80
56729;DHT22;42612;52.232;7.560;2022-10-16T02:18:08;16.80;64.60
56729;DHT22;42612;52.232;7.560;2022-10-16T02:23:54;16.80;65.10
56729;DHT22;42612;52.232;7.560;2022-10-16T02:26:30;16.80;65.10
56729;DHT22;42612;52.232;7.560;2022-10-16T02:29:02;16.80;64.70
56729;DHT22;42612;52.232;7.560;2022-10-16T02:31:32;16.80;64.70
56729;DHT22;42612;52.232;7.560;2022-10-16T02:34:01;16.80;64.80
56729;DHT22;42612;52.232;7.560;2022-10-16T02:36:28;16.80;64.90
56729;DHT22;42612;52.232;7.560;2022-10-16T02:38:54;16.80;65.00
56729;DHT22;42612;52.232;7.560;2022-10-16T02:41:21;16.80;65.10
56729;DHT22;42612;52.232;7.560;2022-10-16T02:43:47;16.80;65.00
56729;DHT22;42612;52.232;7.560;2022-10-16T02:46:12;16.80;65.00
56729;DHT22;42612;52.232;7.560;2022-10-16T02:48:38;16.80;65.10
56729;DHT22;42612;52.232;7.560;2022-10-16T02:51:04;16.80;64.80
56729;DHT22;42612;52.232;7.560;2022-10-16T02:53:30;16.80;64.80
56729;DHT22;42612;52.232;7.560;2022-10-16T02:55:55;16.90;64.80
56729;DHT22;42612;52.232;7.560;2022-10-16T02:58:21;16.80;64.80
56729;DHT22;42612;52.232;7.560;2022-10-16T03:00:47;16.80;64.80
56729;DHT22;42612;52.232;7.560;2022-10-16T03:03:12;16.80;65.60
56729;DHT22;42612;52.232;7.560;2022-10-16T03:05:38;16.80;64.70
56729;DHT22;42612;52.232;7.560;2022-10-16T03:08:03;16.80;64.70
56729;DHT22;42612;52.232;7.560;2022-10-16T03:10:29;16.80;64.70
56729;DHT22;42612;52.232;7.560;2022-10-16T03:12:55;16.90;64.90
56729;DHT22;42612;52.232;7.560;2022-10-16T03:15:21;16.90;65.00
56729;DHT22;42612;52.232;7.560;2022-10-16T03:17:46;16.90;64.80
56729;DHT22;42612;52.232;7.560;2022-10-16T03:20:12;16.90;64.80
56729;DHT22;42612;52.232;7.560;2022-10-16T03:22:37;16.90;65.40
56729;DHT22;42612;52.232;7.560;2022-10-16T03:25:03;16.90;65.00
56729;DHT22;42612;52.232;7.560;2022-10-16T03:27:29;16.90;64.80
56729;DHT22;42612;52.232;7.560;2022-10-16T03:29:55;16.90;64.90
56729;DHT22;42612;52.232;7.560;2022-10-16T03:32:20;16.90;64.90
56729;DHT22;42612;52.232;7.560;2022-10-16T03:34:46;16.90;65.00
56729;DHT22;42612;52.232;7.560;2022-10-16T03:37:12;16.90;65.10
56729;DHT22;42612;52.232;7.560;2022-10-16T03:39:38;16.80;64.70
56729;DHT22;42612;52.232;7.560;2022-10-16T03:42:03;16.90;64.80
56729;DHT22;42612;52.232;7.560;2022-10-16T03:44:29;16.90;64.90
56729;DHT22;42612;52.232;7.560;2022-10-16T03:46:55;16.80;64.90
56729;DHT22;42612;52.232;7.560;2022-10-16T03:49:20;16.80;64.80
56729;DHT22;42612;52.232;7.560;2022-10-16T03:51:46;16.80;64.90
56729;DHT22;42612;52.232;7.560;2022-10-16T03:54:11;16.80;64.90
56729;DHT22;42612;52.232;7.560;2022-10-16T03:56:38;16.80;64.90
56729;DHT22;42612;52.232;7.560;2022-10-16T03:59:03;16.80;64.80
56729;DHT22;42612;52.232;7.560;2022-10-16T04:01:29;16.80;64.70
56729;DHT22;42612;52.232;7.560;2022-10-16T04:03:55;16.80;64.70
56729;DHT22;42612;52.232;7.560;2022-10-16T04:06:20;16.80;64.60
56729;DHT22;42612;52.232;7.560;2022-10-16T04:08:46;16.80;64.70
56729;DHT22;42612;52.232;7.560;2022-10-16T04:11:11;16.90;64.80
56729;DHT22;42612;52.232;7.560;2022-10-16T04:13:37;16.80;64.60
56729;DHT22;42612;52.232;7.560;2022-10-16T04:16:03;16.80;64.70
56729;DHT22;42612;52.232;7.560;2022-10-16T04:18:28;16.80;64.70
56729;DHT22;42612;52.232;7.560;2022-10-16T04:20:54;16.80;64.60
56729;DHT22;42612;52.232;7.560;2022-10-16T04:23:20;16.80;64.60
56729;DHT22;42612;52.232;7.560;2022-10-16T04:25:48;16.80;64.60
56729;DHT22;42612;52.232;7.560;2022-10-16T04:28:13;16.80;64.60
56729;DHT22;42612;52.232;7.560;2022-10-16T04:30:39;16.90;64.60
56729;DHT22;42612;52.232;7.560;2022-10-16T04:33:05;16.80;64.60
56729;DHT22;42612;52.232;7.560;2022-10-16T04:35:30;16.80;64.60
56729;DHT22;42612;52.232;7.560;2022-10-16T04:37:59;16.80;64.50
56729;DHT22;42612;52.232;7.560;2022-10-16T04:40:25;16.80;64.70
56729;DHT22;42612;52.232;7.560;2022-10-16T04:42:50;16.80;64.70
56729;DHT22;42612;52.232;7.560;2022-10-16T04:45:16;16.80;64.50
56729;DHT22;42612;52.232;7.560;2022-10-16T04:47:42;16.80;64.70
56729;DHT22;42612;52.232;7.560;2022-10-16T04:50:07;16.80;64.70
56729;DHT22;42612;52.232;7.560;2022-10-16T04:52:33;16.80;64.60
56729;DHT22;42612;52.232;7.560;2022-10-16T04:54:59;16.80;64.50
56729;DHT22;42612;52.232;7.560;2022-10-16T04:57:27;16.80;64.40
56729;DHT22;42612;52.232;7.560;2022-10-16T04:59:54;16.80;64.40
56729;DHT22;42612;52.232;7.560;2022-10-16T05:02:19;16.80;64.40
56729;DHT22;42612;52.232;7.560;2022-10-16T05:04:45;16.80;64.50
56729;DHT22;42612;52.232;7.560;2022-10-16T05:07:11;16.80;64.40
56729;DHT22;42612;52.232;7.560;2022-10-16T05:09:36;16.80;64.30
56729;DHT22;42612;52.232;7.560;2022-10-16T05:12:02;16.80;64.30
56729;DHT22;42612;52.232;7.560;2022-10-16T05:14:28;16.80;64.20
56729;DHT22;42612;52.232;7.560;2022-10-16T05:16:54;16.80;64.20
56729;DHT22;42612;52.232;7.560;2022-10-16T05:19:20;16.80;64.20
56729;DHT22;42612;52.232;7.560;2022-10-16T05:21:46;16.80;64.20
56729;DHT22;42612;52.232;7.560;2022-10-16T05:24:11;16.80;64.10
56729;DHT22;42612;52.232;7.560;2022-10-16T05:26:37;16.80;64.00
56729;DHT22;42612;52.232;7.560;2022-10-16T05:29:02;16.80;64.00
56729;DHT22;42612;52.232;7.560;2022-10-16T05:31:28;16.80;64.00
56729;DHT22;42612;52.232;7.560;2022-10-16T05:33:57;16.80;64.00
56729;DHT22;42612;52.232;7.560;2022-10-16T05:36:26;16.80;63.90
56729;DHT22;42612;52.232;7.560;2022-10-16T05:38:52;16.80;63.90
56729;DHT22;42612;52.232;7.560;2022-10-16T05:41:17;16.80;63.90
56729;DHT22;42612;52.232;7.560;2022-10-16T05:43:47;16.80;63.80
56729;DHT22;42612;52.232;7.560;2022-10-16T05:46:13;16.80;63.80
56729;DHT22;42612;52.232;7.560;2022-10-16T05:48:39;16.80;63.80
56729;DHT22;42612;52.232;7.560;2022-10-16T05:51:06;16.80;63.70
56729;DHT22;42612;52.232;7.560;2022-10-16T05:53:33;16.80;63.80
56729;DHT22;42612;52.232;7.560;2022-10-16T05:56:00;16.80;63.80
56729;DHT22;42612;52.232;7.560;2022-10-16T05:58:28;16.80;63.70
56729;DHT22;42612;52.232;7.560;2022-10-16T06:01:03;16.90;63.70
56729;DHT22;42612;52.232;7.560;2022-10-16T06:03:29;16.80;63.70
56729;DHT22;42612;52.232;7.560;2022-10-16T06:05:55;16.80;63.70
56729;DHT22;42612;52.232;7.560;2022-10-16T06:08:21;16.80;63.70
56729;DHT22;42612;52.232;7.560;2022-10-16T06:10:48;16.80;63.60
56729;DHT22;42612;52.232;7.560;2022-10-16T06:13:14;16.80;63.70
56729;DHT22;42612;52.232;7.560;2022-10-16T06:15:41;16.80;63.70
56729;DHT22;42612;52.232;7.560;2022-10-16T06:18:07;16.80;63.80
56729;DHT22;42612;52.232;7.560;2022-10-16T06:20:34;16.70;63.80
56729;DHT22;42612;52.232;7.560;2022-10-16T06:23:00;16.70;63.90
56729;DHT22;42612;52.232;7.560;2022-10-16T06:25:25;16.70;63.80
56729;DHT22;42612;52.232;7.560;2022-10-16T06:27:51;16.70;63.80
56729;DHT22;42612;52.232;7.560;2022-10-16T06:30:17;16.70;63.80
56729;DHT22;42612;52.232;7.560;2022-10-16T06:32:42;16.70;63.80
56729;DHT22;42612;52.232;7.560;2022-10-16T06:35:08;16.70;63.80
56729;DHT22;42612;52.232;7.560;2022-10-16T06:37:33;16.70;63.80
56729;DHT22;42612;52.232;7.560;2022-10-16T06:39:59;16.80;63.80
56729;DHT22;42612;52.232;7.560;2022-10-16T06:42:25;16.70;63.70
56729;DHT22;42612;52.232;7.560;2022-10-16T06:44:51;16.80;63.80
56729;DHT22;42612;52.232;7.560;2022-10-16T06:47:16;16.70;64.40
56729;DHT22;42612;52.232;7.560;2022-10-16T06:49:42;16.80;64.40
56729;DHT22;42612;52.232;7.560;2022-10-16T06:52:08;16.80;63.70
56729;DHT22;42612;52.232;7.560;2022-10-16T06:54:33;16.80;63.70
56729;DHT22;42612;52.232;7.560;2022-10-16T06:56:59;16.80;63.80
56729;DHT22;42612;52.232;7.560;2022-10-16T06:59:25;16.80;63.80
56729;DHT22;42612;52.232;7.560;2022-10-16T07:01:50;16.80;63.80
56729;DHT22;42612;52.232;7.560;2022-10-16T07:04:16;16.80;63.80
56729;DHT22;42612;52.232;7.560;2022-10-16T07:06:41;16.80;63.80
56729;DHT22;42612;52.232;7.560;2022-10-16T07:09:09;16.80;63.70
56729;DHT22;42612;52.232;7.560;2022-10-16T07:11:36;16.80;63.70
56729;DHT22;42612;52.232;7.560;2022-10-16T07:14:02;16.80;63.70
56729;DHT22;42612;52.232;7.560;2022-10-16T07:16:29;16.80;63.80
56729;DHT22;42612;52.232;7.560;2022-10-16T07:18:57;16.80;63.80
56729;DHT22;42612;52.232;7.560;2022-10-16T07:21:24;16.80;63.90
56729;DHT22;42612;52.232;7.560;2022-10-16T07:23:51;16.80;64.20
56729;DHT22;42612;52.232;7.560;2022-10-16T07:26:21;16.80;64.20
56729;DHT22;42612;52.232;7.560;2022-10-16T07:28:47;16.80;64.20
56729;DHT22;42612;52.232;7.560;2022-10-16T07:31:14;16.80;64.20
56729;DHT22;42612;52.232;7.560;2022-10-16T07:33:40;16.80;64.30
56729;DHT22;42612;52.232;7.560;2022-10-16T07:36:08;16.80;64.70
56729;DHT22;42612;52.232;7.560;2022-10-16T07:38:34;16.80;64.70
56729;DHT22;42612;52.232;7.560;2022-10-16T07:41:03;16.90;65.30
56729;DHT22;42612;52.232;7.560;2022-10-16T07:43:30;16.90;65.10
56729;DHT22;42612;52.232;7.560;2022-10-16T07:45:56;16.90;64.80
56729;DHT22;42612;52.232;7.560;2022-10-16T07:48:22;16.90;65.30
56729;DHT22;42612;52.232;7.560;2022-10-16T07:50:48;17.00;65.70
56729;DHT22;42612;52.232;7.560;2022-10-16T07:53:14;17.00;65.10
56729;DHT22;42612;52.232;7.560;2022-10-16T07:55:40;17.00;65.50
56729;DHT22;42612;52.232;7.560;2022-10-16T07:58:06;17.00;65.50
56729;DHT22;42612;52.232;7.560;2022-10-16T08:00:32;17.00;65.20
56729;DHT22;42612;52.232;7.560;2022-10-16T08:02:58;17.00;65.30
56729;DHT22;42612;52.232;7.560;2022-10-16T08:05:27;17.10;65.30
56729;DHT22;42612;52.232;7.560;2022-10-16T08:07:55;17.10;65.20
56729;DHT22;42612;52.232;7.560;2022-10-16T08:10:21;17.20;65.40
56729;DHT22;42612;52.232;7.560;2022-10-16T08:12:49;17.20;65.50
56729;DHT22;42612;52.232;7.560;2022-10-16T08:15:15;17.20;65.40
56729;DHT22;42612;52.232;7.560;2022-10-16T08:17:40;17.20;65.00
56729;DHT22;42612;52.232;7.560;2022-10-16T08:20:06;17.30;64.80
56729;DHT22;42612;52.232;7.560;2022-10-16T08:22:32;17.30;65.10
56729;DHT22;42612;52.232;7.560;2022-10-16T08:24:58;17.30;65.80
56729;DHT22;42612;52.232;7.560;2022-10-16T08:27:23;17.40;64.70
56729;DHT22;42612;52.232;7.560;2022-10-16T08:30:27;17.40;64.50
56729;DHT22;42612;52.232;7.560;2022-10-16T08:32:52;17.40;64.80
56729;DHT22;42612;52.232;7.560;2022-10-16T08:35:18;17.40;65.10
56729;DHT22;42612;52.232;7.560;2022-10-16T08:37:44;17.50;65.20
56729;DHT22;42612;52.232;7.560;2022-10-16T08:40:22;17.50;65.30
56729;DHT22;42612;52.232;7.560;2022-10-16T08:48:46;17.60;65.50
56729;DHT22;42612;52.232;7.560;2022-10-16T08:51:23;17.60;65.40
56729;DHT22;42612;52.232;7.560;2022-10-16T08:53:57;17.70;65.40
56729;DHT22;42612;52.232;7.560;2022-10-16T08:56:25;17.70;65.40
56729;DHT22;42612;52.232;7.560;2022-10-16T08:58:53;17.70;65.20
56729;DHT22;42612;52.232;7.560;2022-10-16T09:01:21;17.80;65.20
56729;DHT22;42612;52.232;7.560;2022-10-16T09:07:18;17.80;65.20
56729;DHT22;42612;52.232;7.560;2022-10-16T09:10:01;17.90;65.10
56729;DHT22;42612;52.232;7.560;2022-10-16T09:12:40;17.90;64.70
56729;DHT22;42612;52.232;7.560;2022-10-16T09:23:38;18.10;64.60
56729;DHT22;42612;52.232;7.560;2022-10-16T09:26:05;18.20;64.60
56729;DHT22;42612;52.232;7.560;2022-10-16T09:28:31;18.20;64.20
56729;DHT22;42612;52.232;7.560;2022-10-16T09:30:57;18.20;64.00
56729;DHT22;42612;52.232;7.560;2022-10-16T09:33:27;18.30;64.10
56729;DHT22;42612;52.232;7.560;2022-10-16T09:35:56;18.30;63.90
56729;DHT22;42612;52.232;7.560;2022-10-16T09:38:33;18.40;63.90
56729;DHT22;42612;52.232;7.560;2022-10-16T09:41:24;18.40;63.60
56729;DHT22;42612;52.232;7.560;2022-10-16T09:44:01;18.30;63.70
56729;DHT22;42612;52.232;7.560;2022-10-16T09:46:32;18.40;63.40
56729;DHT22;42612;52.232;7.560;2022-10-16T09:49:22;18.40;63.50
56729;DHT22;42612;52.232;7.560;2022-10-16T09:51:50;18.40;63.40
56729;DHT22;42612;52.232;7.560;2022-10-16T09:54:21;18.50;63.50
56729;DHT22;42612;52.232;7.560;2022-10-16T09:56:47;18.50;63.30
56729;DHT22;42612;52.232;7.560;2022-10-16T09:59:21;18.50;63.40
56729;DHT22;42612;52.232;7.560;2022-10-16T10:01:53;18.60;63.10
56729;DHT22;42612;52.232;7.560;2022-10-16T10:04:22;18.60;63.30
56729;DHT22;42612;52.232;7.560;2022-10-16T10:06:51;18.70;63.40
56729;DHT22;42612;52.232;7.560;2022-10-16T10:12:00;18.80;63.30
56729;DHT22;42612;52.232;7.560;2022-10-16T10:14:36;18.80;62.70
56729;DHT22;42612;52.232;7.560;2022-10-16T10:32:06;19.00;62.00
56729;DHT22;42612;52.232;7.560;2022-10-16T10:37:34;19.00;62.00
56729;DHT22;42612;52.232;7.560;2022-10-16T10:45:49;19.00;61.60
56729;DHT22;42612;52.232;7.560;2022-10-16T10:48:46;19.10;61.60
56729;DHT22;42612;52.232;7.560;2022-10-16T10:51:58;19.00;61.20
56729;DHT22;42612;52.232;7.560;2022-10-16T11:01:13;19.20;61.50
56729;DHT22;42612;52.232;7.560;2022-10-16T11:06:55;19.30;61.40
56729;DHT22;42612;52.232;7.560;2022-10-16T11:09:30;19.40;61.60
56729;DHT22;42612;52.232;7.560;2022-10-16T11:12:21;19.50;61.40
56729;DHT22;42612;52.232;7.560;2022-10-16T11:15:19;19.60;60.60
56729;DHT22;42612;52.232;7.560;2022-10-16T11:18:06;19.70;60.70
56729;DHT22;42612;52.232;7.560;2022-10-16T11:20:47;19.80;59.60
56729;DHT22;42612;52.232;7.560;2022-10-16T11:26:24;19.80;59.10
56729;DHT22;42612;52.232;7.560;2022-10-16T11:28:56;19.80;59.60
56729;DHT22;42612;52.232;7.560;2022-10-16T11:39:46;19.90;59.00
56729;DHT22;42612;52.232;7.560;2022-10-16T11:42:19;20.00;59.60
56729;DHT22;42612;52.232;7.560;2022-10-16T11:56:17;20.40;57.80
56729;DHT22;42612;52.232;7.560;2022-10-16T11:58:52;20.60;58.50
56729;DHT22;42612;52.232;7.560;2022-10-16T12:01:45;20.60;58.30
56729;DHT22;42612;52.232;7.560;2022-10-16T12:04:34;20.70;57.50
56729;DHT22;42612;52.232;7.560;2022-10-16T12:07:14;20.80;55.30
56729;DHT22;42612;52.232;7.560;2022-10-16T12:09:44;20.90;56.80
56729;DHT22;42612;52.232;7.560;2022-10-16T12:15:02;21.10;55.90
56729;DHT22;42612;52.232;7.560;2022-10-16T12:17:49;21.10;57.20
56729;DHT22;42612;52.232;7.560;2022-10-16T12:20:30;21.20;57.00
56729;DHT22;42612;52.232;7.560;2022-10-16T12:23:03;21.30;55.90
56729;DHT22;42612;52.232;7.560;2022-10-16T12:25:34;21.40;55.60
56729;DHT22;42612;52.232;7.560;2022-10-16T12:28:06;21.50;55.80
56729;DHT22;42612;52.232;7.560;2022-10-16T12:30:52;21.60;55.20
56729;DHT22;42612;52.232;7.560;2022-10-16T12:36:27;21.70;54.30
56729;DHT22;42612;52.232;7.560;2022-10-16T12:38:57;21.80;53.40
56729;DHT22;42612;52.232;7.560;2022-10-16T12:41:28;21.80;54.80
56729;DHT22;42612;52.232;7.560;2022-10-16T12:43:59;21.80;54.20
56729;DHT22;42612;52.232;7.560;2022-10-16T12:51:37;21.80;52.20
56729;DHT22;42612;52.232;7.560;2022-10-16T12:54:14;21.90;54.00
56729;DHT22;42612;52.232;7.560;2022-10-16T13:08:33;22.10;51.80
56729;DHT22;42612;52.232;7.560;2022-10-16T13:19:58;22.30;52.30
56729;DHT22;42612;52.232;7.560;2022-10-16T13:22:48;22.40;51.20
56729;DHT22;42612;52.232;7.560;2022-10-16T13:28:28;22.50;52.70
56729;DHT22;42612;52.232;7.560;2022-10-16T13:30:58;22.50;52.00
56729;DHT22;42612;52.232;7.560;2022-10-16T13:36:04;22.50;52.30
56729;DHT22;42612;52.232;7.560;2022-10-16T13:38:35;22.50;52.20
56729;DHT22;42612;52.232;7.560;2022-10-16T13:41:12;22.50;52.20
56729;DHT22;42612;52.232;7.560;2022-10-16T13:46:16;22.60;52.80
56729;DHT22;42612;52.232;7.560;2022-10-16T13:49:11;22.70;51.10
56729;DHT22;42612;52.232;7.560;2022-10-16T13:51:39;22.70;50.30
56729;DHT22;42612;52.232;7.560;2022-10-16T13:54:05;22.70;51.70
56729;DHT22;42612;52.232;7.560;2022-10-16T13:56:32;22.70;51.50
56729;DHT22;42612;52.232;7.560;2022-10-16T13:59:02;22.70;51.30
56729;DHT22;42612;52.232;7.560;2022-10-16T14:01:49;22.80;50.80
56729;DHT22;42612;52.232;7.560;2022-10-16T14:04:17;22.80;49.40
56729;DHT22;42612;52.232;7.560;2022-10-16T14:06:45;22.90;51.20
56729;DHT22;42612;52.232;7.560;2022-10-16T14:09:30;22.90;50.40
56729;DHT22;42612;52.232;7.560;2022-10-16T14:12:01;22.90;49.20
56729;DHT22;42612;52.232;7.560;2022-10-16T14:14:35;23.00;50.60
56729;DHT22;42612;52.232;7.560;2022-10-16T14:17:28;23.00;50.00
56729;DHT22;42612;52.232;7.560;2022-10-16T14:19:58;23.10;50.20
56729;DHT22;42612;52.232;7.560;2022-10-16T14:22:34;23.10;50.50
56729;DHT22;42612;52.232;7.560;2022-10-16T14:25:27;23.10;49.40
56729;DHT22;42612;52.232;7.560;2022-10-16T14:28:04;23.20;49.20
56729;DHT22;42612;52.232;7.560;2022-10-16T14:33:32;23.20;49.20
56729;DHT22;42612;52.232;7.560;2022-10-16T14:38:34;23.20;49.30
56729;DHT22;42612;52.232;7.560;2022-10-16T14:41:00;23.30;50.20
56729;DHT22;42612;52.232;7.560;2022-10-16T14:43:33;23.30;50.00
56729;DHT22;42612;52.232;7.560;2022-10-16T14:46:02;23.30;49.00
56729;DHT22;42612;52.232;7.560;2022-10-16T14:48:29;23.30;49.70
56729;DHT22;42612;52.232;7.560;2022-10-16T14:50:55;23.30;49.70
56729;DHT22;42612;52.232;7.560;2022-10-16T14:53:21;23.30;49.50
56729;DHT22;42612;52.232;7.560;2022-10-16T14:55:47;23.30;49.60
56729;DHT22;42612;52.232;7.560;2022-10-16T14:58:20;23.30;49.80
56729;DHT22;42612;52.232;7.560;2022-10-16T15:00:47;23.30;48.80
56729;DHT22;42612;52.232;7.560;2022-10-16T15:03:13;23.30;49.50
56729;DHT22;42612;52.232;7.560;2022-10-16T15:05:39;23.30;49.40
56729;DHT22;42612;52.232;7.560;2022-10-16T15:08:05;23.20;49.60
56729;DHT22;42612;52.232;7.560;2022-10-16T15:10:31;23.30;49.50
56729;DHT22;42612;52.232;7.560;2022-10-16T15:13:12;23.30;49.60
56729;DHT22;42612;52.232;7.560;2022-10-16T15:15:47;23.40;49.20
56729;DHT22;42612;52.232;7.560;2022-10-16T15:18:14;23.40;48.80
56729;DHT22;42612;52.232;7.560;2022-10-16T15:20:47;23.40;49.50
56729;DHT22;42612;52.232;7.560;2022-10-16T15:23:19;23.40;49.30
56729;DHT22;42612;52.232;7.560;2022-10-16T15:25:59;23.40;49.20
56729;DHT22;42612;52.232;7.560;2022-10-16T15:28:25;23.40;48.10
56729;DHT22;42612;52.232;7.560;2022-10-16T15:30:53;23.40;49.10
56729;DHT22;42612;52.232;7.560;2022-10-16T15:33:22;23.30;49.00
56729;DHT22;42612;52.232;7.560;2022-10-16T15:35:50;23.30;48.80
56729;DHT22;42612;52.232;7.560;2022-10-16T15:38:19;23.30;48.80
56729;DHT22;42612;52.232;7.560;2022-10-16T15:40:48;23.20;49.00
56729;DHT22;42612;52.232;7.560;2022-10-16T15:43:14;23.20;48.90
56729;DHT22;42612;52.232;7.560;2022-10-16T15:45:40;23.00;49.00
56729;DHT22;42612;52.232;7.560;2022-10-16T15:48:11;23.00;49.20
56729;DHT22;42612;52.232;7.560;2022-10-16T15:50:38;23.00;48.90
56729;DHT22;42612;52.232;7.560;2022-10-16T15:53:04;22.90;49.30
56729;DHT22;42612;52.232;7.560;2022-10-16T15:55:29;22.90;49.40
56729;DHT22;42612;52.232;7.560;2022-10-16T15:57:55;22.80;49.50
56729;DHT22;42612;52.232;7.560;2022-10-16T16:00:21;22.70;49.50
56729;DHT22;42612;52.232;7.560;2022-10-16T16:02:54;22.70;49.50
56729;DHT22;42612;52.232;7.560;2022-10-16T16:05:21;22.70;49.40
56729;DHT22;42612;52.232;7.560;2022-10-16T16:07:48;22.50;49.70
56729;DHT22;42612;52.232;7.560;2022-10-16T16:10:14;22.50;49.80
56729;DHT22;42612;52.232;7.560;2022-10-16T16:12:40;22.50;49.90
56729;DHT22;42612;52.232;7.560;2022-10-16T16:15:07;22.40;49.90
56729;DHT22;42612;52.232;7.560;2022-10-16T16:17:34;22.30;49.90
56729;DHT22;42612;52.232;7.560;2022-10-16T16:20:01;22.30;50.10
56729;DHT22;42612;52.232;7.560;2022-10-16T16:22:27;22.20;50.20
56729;DHT22;42612;52.232;7.560;2022-10-16T16:24:53;22.20;50.30
56729;DHT22;42612;52.232;7.560;2022-10-16T16:27:19;22.20;50.50
56729;DHT22;42612;52.232;7.560;2022-10-16T16:29:45;22.10;50.50
56729;DHT22;42612;52.232;7.560;2022-10-16T16:32:11;22.00;50.60
56729;DHT22;42612;52.232;7.560;2022-10-16T16:34:37;22.00;50.80
56729;DHT22;42612;52.232;7.560;2022-10-16T16:37:03;21.90;51.00
56729;DHT22;42612;52.232;7.560;2022-10-16T16:39:29;21.80;51.20
56729;DHT22;42612;52.232;7.560;2022-10-16T16:41:56;21.80;51.40
56729;DHT22;42612;52.232;7.560;2022-10-16T16:44:24;21.60;51.50
56729;DHT22;42612;52.232;7.560;2022-10-16T16:46:50;21.60;51.60
56729;DHT22;42612;52.232;7.560;2022-10-16T16:49:16;21.40;51.70
56729;DHT22;42612;52.232;7.560;2022-10-16T16:51:42;21.40;51.80
56729;DHT22;42612;52.232;7.560;2022-10-16T16:54:10;21.40;51.90
56729;DHT22;42612;52.232;7.560;2022-10-16T16:56:37;21.30;52.00
56729;DHT22;42612;52.232;7.560;2022-10-16T16:59:03;21.20;52.10
56729;DHT22;42612;52.232;7.560;2022-10-16T17:01:29;21.20;52.30
56729;DHT22;42612;52.232;7.560;2022-10-16T17:03:57;21.10;52.40
56729;DHT22;42612;52.232;7.560;2022-10-16T17:06:27;21.10;52.50
56729;DHT22;42612;52.232;7.560;2022-10-16T17:08:55;20.90;52.60
56729;DHT22;42612;52.232;7.560;2022-10-16T17:11:24;20.90;52.80
56729;DHT22;42612;52.232;7.560;2022-10-16T17:13:52;20.80;52.90
56729;DHT22;42612;52.232;7.560;2022-10-16T17:16:20;20.70;53.00
56729;DHT22;42612;52.232;7.560;2022-10-16T17:18:46;20.70;53.20
56729;DHT22;42612;52.232;7.560;2022-10-16T17:21:12;20.70;53.40
56729;DHT22;42612;52.232;7.560;2022-10-16T17:23:38;20.60;53.20
56729;DHT22;42612;52.232;7.560;2022-10-16T17:26:04;20.60;53.40
56729;DHT22;42612;52.232;7.560;2022-10-16T17:28:41;20.50;53.60
56729;DHT22;42612;52.232;7.560;2022-10-16T17:31:19;20.40;54.50
56729;DHT22;42612;52.232;7.560;2022-10-16T17:33:46;20.40;54.10
56729;DHT22;42612;52.232;7.560;2022-10-16T17:36:13;20.40;53.90
56729;DHT22;42612;52.232;7.560;2022-10-16T17:38:40;20.40;54.00
56729;DHT22;42612;52.232;7.560;2022-10-16T17:41:22;20.20;54.00
56729;DHT22;42612;52.232;7.560;2022-10-16T17:43:50;20.20;54.50
56729;DHT22;42612;52.232;7.560;2022-10-16T17:46:18;20.20;54.20
56729;DHT22;42612;52.232;7.560;2022-10-16T17:48:46;20.20;54.40
56729;DHT22;42612;52.232;7.560;2022-10-16T17:51:16;20.10;54.50
56729;DHT22;42612;52.232;7.560;2022-10-16T17:53:47;20.00;54.60
56729;DHT22;42612;52.232;7.560;2022-10-16T17:56:14;20.00;54.80
56729;DHT22;42612;52.232;7.560;2022-10-16T17:58:41;20.00;55.30